sensor_id;sensor_type;location;lat;lon;timestamp;pressure;altitude;pressure_sealevel;temperature;humidity
12664;BME280;6396;58.490;15.528;2023-06-14T00:02:19;101374.41;;;17.51;64.57
12664;BME280;6396;58.490;15.528;2023-06-14T00:04:46;101316.00;;;17.22;64.61
12664;BME280;6396;58.490;15.528;2023-06-14T00:07:13;101311.03;;;17.13;64.47
12664;BME280;6396;58.490;15.528;2023-06-14T00:09:42;101458.81;;;17.77;65.01
12664;BME280;6396;58.490;15.528;2023-06-14T00:12:09;101381.03;;;17.41;64.85
12664;BME280;6396;58.490;15.528;2023-06-14T00:14:37;101399.72;;;17.41;65.31
12664;BME280;6396;58.490;15.528;2023-06-14T00:17:04;101176.47;;;16.35;64.49
12664;BME280;6396;58.490;15.528;2023-06-14T00:19:32;101420.59;;;17.75;64.18
12664;BME280;6396;58.490;15.528;2023-06-14T00:22:01;101424.25;;;17.72;63.87
12664;BME280;6396;58.490;15.528;2023-06-14T00:24:28;101394.53;;;17.38;63.08
12664;BME280;6396;58.490;15.528;2023-06-14T00:26:55;101420.91;;;17.67;63.45
12664;BME280;6396;58.490;15.528;2023-06-14T00:29:22;101266.59;;;16.49;63.61
12664;BME280;6396;58.490;15.528;2023-06-14T00:31:50;101167.72;;;16.10;63.92
12664;BME280;6396;58.490;15.528;2023-06-14T00:34:17;101220.84;;;16.36;64.12
12664;BME280;6396;58.490;15.528;2023-06-14T00:36:43;101341.41;;;16.89;63.90
12664;BME280;6396;58.490;15.528;2023-06-14T00:39:10;101376.22;;;17.29;63.25
12664;BME280;6396;58.490;15.528;2023-06-14T00:41:37;101401.53;;;17.41;62.44
12664;BME280;6396;58.490;15.528;2023-06-14T00:44:04;101366.94;;;17.16;61.49
12664;BME280;6396;58.490;15.528;2023-06-14T00:46:31;101414.59;;;17.48;61.15
12664;BME280;6396;58.490;15.528;2023-06-14T00:49:00;101347.72;;;17.08;61.50
12664;BME280;6396;58.490;15.528;2023-06-14T00:51:28;101504.81;;;17.40;61.57
12664;BME280;6396;58.490;15.528;2023-06-14T00:53:55;100861.50;;;14.11;62.83
12664;BME280;6396;58.490;15.528;2023-06-14T00:56:22;100939.47;;;14.09;63.05
12664;BME280;6396;58.490;15.528;2023-06-14T00:58:49;101446.81;;;17.22;63.34
12664;BME280;6396;58.490;15.528;2023-06-14T01:01:17;100840.16;;;13.40;63.09
12664;BME280;6396;58.490;15.528;2023-06-14T01:03:43;100783.97;;;13.03;64.32
12664;BME280;6396;58.490;15.528;2023-06-14T01:06:19;101462.06;;;17.19;65.01
12664;BME280;6396;58.490;15.528;2023-06-14T01:09:00;100895.03;;;14.14;64.29
12664;BME280;6396;58.490;15.528;2023-06-14T01:11:32;101113.53;;;14.96;63.11
12664;BME280;6396;58.490;15.528;2023-06-14T01:14:02;100858.97;;;13.84;61.03
12664;BME280;6396;58.490;15.528;2023-06-14T01:16:30;100930.31;;;13.93;61.27
12664;BME280;6396;58.490;15.528;2023-06-14T01:18:58;100727.31;;;12.80;61.83
12664;BME280;6396;58.490;15.528;2023-06-14T01:21:26;101436.16;;;16.76;62.70
12664;BME280;6396;58.490;15.528;2023-06-14T01:23:55;101496.97;;;16.68;64.00
12664;BME280;6396;58.490;15.528;2023-06-14T01:26:22;100922.72;;;13.30;65.32
12664;BME280;6396;58.490;15.528;2023-06-14T01:28:50;101163.47;;;14.88;67.13
12664;BME280;6396;58.490;15.528;2023-06-14T01:31:19;101424.66;;;16.52;66.15
12664;BME280;6396;58.490;15.528;2023-06-14T01:33:48;101293.84;;;15.12;66.88
12664;BME280;6396;58.490;15.528;2023-06-14T01:36:16;100573.53;;;11.21;67.42
12664;BME280;6396;58.490;15.528;2023-06-14T01:38:45;101426.06;;;16.38;69.07
12664;BME280;6396;58.490;15.528;2023-06-14T01:41:15;101406.00;;;15.79;70.42
12664;BME280;6396;58.490;15.528;2023-06-14T01:43:42;101514.72;;;16.43;70.21
12664;BME280;6396;58.490;15.528;2023-06-14T01:46:10;101107.66;;;14.37;70.91
12664;BME280;6396;58.490;15.528;2023-06-14T01:48:38;100581.78;;;11.40;72.16
12664;BME280;6396;58.490;15.528;2023-06-14T01:51:05;100904.91;;;13.07;72.35
12664;BME280;6396;58.490;15.528;2023-06-14T01:53:31;101436.28;;;16.25;73.34
12664;BME280;6396;58.490;15.528;2023-06-14T01:56:01;101224.56;;;14.89;75.26
12664;BME280;6396;58.490;15.528;2023-06-14T01:58:30;100915.69;;;13.00;73.80
12664;BME280;6396;58.490;15.528;2023-06-14T02:00:56;100795.75;;;11.80;73.20
12664;BME280;6396;58.490;15.528;2023-06-14T02:03:26;101527.28;;;16.15;73.48
12664;BME280;6396;58.490;15.528;2023-06-14T02:05:53;101005.44;;;13.42;73.92
12664;BME280;6396;58.490;15.528;2023-06-14T02:08:21;101160.84;;;14.35;74.55
12664;BME280;6396;58.490;15.528;2023-06-14T02:10:47;100482.75;;;10.64;73.62
12664;BME280;6396;58.490;15.528;2023-06-14T02:13:15;100990.81;;;13.57;74.35
12664;BME280;6396;58.490;15.528;2023-06-14T02:15:43;101286.66;;;14.62;74.76
12664;BME280;6396;58.490;15.528;2023-06-14T02:18:11;101506.72;;;15.94;76.85
12664;BME280;6396;58.490;15.528;2023-06-14T02:20:41;101423.91;;;16.00;77.53
12664;BME280;6396;58.490;15.528;2023-06-14T02:23:08;101149.63;;;14.26;76.91
12664;BME280;6396;58.490;15.528;2023-06-14T02:25:35;101245.44;;;14.75;74.83
12664;BME280;6396;58.490;15.528;2023-06-14T02:28:02;101252.69;;;14.44;74.98
12664;BME280;6396;58.490;15.528;2023-06-14T02:30:29;101420.97;;;16.07;75.57
12664;BME280;6396;58.490;15.528;2023-06-14T02:32:58;100887.63;;;12.94;77.91
12664;BME280;6396;58.490;15.528;2023-06-14T02:35:25;100687.78;;;11.62;76.46
12664;BME280;6396;58.490;15.528;2023-06-14T02:37:52;101511.00;;;15.98;78.02
12664;BME280;6396;58.490;15.528;2023-06-14T02:40:19;101466.66;;;15.97;77.72
12664;BME280;6396;58.490;15.528;2023-06-14T02:42:46;101452.56;;;15.93;78.45
12664;BME280;6396;58.490;15.528;2023-06-14T02:45:13;101416.69;;;15.52;79.10
12664;BME280;6396;58.490;15.528;2023-06-14T02:47:40;101481.03;;;15.91;78.30
12664;BME280;6396;58.490;15.528;2023-06-14T02:50:09;101271.97;;;15.03;79.25
12664;BME280;6396;58.490;15.528;2023-06-14T02:52:36;101337.63;;;15.02;78.05
12664;BME280;6396;58.490;15.528;2023-06-14T02:55:03;101487.34;;;15.89;77.66
12664;BME280;6396;58.490;15.528;2023-06-14T02:57:31;101422.69;;;15.84;78.75
12664;BME280;6396;58.490;15.528;2023-06-14T02:59:58;101427.19;;;15.82;79.25
12664;BME280;6396;58.490;15.528;2023-06-14T03:02:25;101439.75;;;15.78;80.34
12664;BME280;6396;58.490;15.528;2023-06-14T03:04:52;101296.50;;;14.86;80.65
12664;BME280;6396;58.490;15.528;2023-06-14T03:07:20;101430.97;;;15.76;82.40
12664;BME280;6396;58.490;15.528;2023-06-14T03:09:48;101364.94;;;15.33;82.60
12664;BME280;6396;58.490;15.528;2023-06-14T03:12:15;101446.00;;;15.77;82.02
12664;BME280;6396;58.490;15.528;2023-06-14T03:14:42;101430.75;;;15.82;81.74
12664;BME280;6396;58.490;15.528;2023-06-14T03:17:12;101261.16;;;14.83;82.13
12664;BME280;6396;58.490;15.528;2023-06-14T03:19:38;101197.53;;;14.50;80.47
12664;BME280;6396;58.490;15.528;2023-06-14T03:22:06;101437.47;;;15.94;80.06
12664;BME280;6396;58.490;15.528;2023-06-14T03:24:35;101387.84;;;15.65;80.77
12664;BME280;6396;58.490;15.528;2023-06-14T03:27:02;101289.44;;;15.11;78.84
12664;BME280;6396;58.490;15.528;2023-06-14T03:29:29;101024.34;;;13.60;78.04
12664;BME280;6396;58.490;15.528;2023-06-14T03:31:58;101331.66;;;15.22;79.02
12664;BME280;6396;58.490;15.528;2023-06-14T03:34:24;101465.59;;;16.01;80.48
12664;BME280;6396;58.490;15.528;2023-06-14T03:36:51;101358.75;;;15.33;81.56
12664;BME280;6396;58.490;15.528;2023-06-14T03:39:19;101421.34;;;15.72;80.51
12664;BME280;6396;58.490;15.528;2023-06-14T03:41:48;101449.41;;;16.07;82.40
12664;BME280;6396;58.490;15.528;2023-06-14T03:44:16;101451.13;;;16.08;82.60
12664;BME280;6396;58.490;15.528;2023-06-14T03:46:43;101361.47;;;15.57;82.02
12664;BME280;6396;58.490;15.528;2023-06-14T03:49:11;100956.44;;;12.97;80.86
12664;BME280;6396;58.490;15.528;2023-06-14T03:51:38;101319.13;;;15.24;82.11
12664;BME280;6396;58.490;15.528;2023-06-14T03:54:06;101507.78;;;16.14;82.48
12664;BME280;6396;58.490;15.528;2023-06-14T03:56:33;101197.81;;;14.43;82.99
12664;BME280;6396;58.490;15.528;2023-06-14T03:59:02;101460.50;;;16.19;83.24
12664;BME280;6396;58.490;15.528;2023-06-14T04:01:28;101127.25;;;14.34;81.36
12664;BME280;6396;58.490;15.528;2023-06-14T04:03:56;101366.81;;;15.57;81.89
12664;BME280;6396;58.490;15.528;2023-06-14T04:06:24;101509.91;;;16.29;81.69
12664;BME280;6396;58.490;15.528;2023-06-14T04:08:58;101421.56;;;15.91;81.23
12664;BME280;6396;58.490;15.528;2023-06-14T04:11:30;100753.63;;;12.03;81.42
12664;BME280;6396;58.490;15.528;2023-06-14T04:13:57;101481.13;;;16.39;82.80
12664;BME280;6396;58.490;15.528;2023-06-14T04:16:26;101514.19;;;16.33;84.46
12664;BME280;6396;58.490;15.528;2023-06-14T04:18:54;101461.38;;;16.44;84.51
12664;BME280;6396;58.490;15.528;2023-06-14T04:21:21;101022.38;;;13.92;84.50
12664;BME280;6396;58.490;15.528;2023-06-14T04:23:49;101080.47;;;14.29;84.08
12664;BME280;6396;58.490;15.528;2023-06-14T04:26:18;101508.00;;;16.57;84.15
12664;BME280;6396;58.490;15.528;2023-06-14T04:28:46;101301.44;;;15.74;86.69
12664;BME280;6396;58.490;15.528;2023-06-14T04:31:13;101474.22;;;16.58;90.34
12664;BME280;6396;58.490;15.528;2023-06-14T04:33:43;101523.91;;;16.60;90.65
12664;BME280;6396;58.490;15.528;2023-06-14T04:36:11;101214.91;;;15.13;92.92
12664;BME280;6396;58.490;15.528;2023-06-14T04:38:38;101383.75;;;16.06;95.76
12664;BME280;6396;58.490;15.528;2023-06-14T04:41:06;101025.47;;;14.05;92.68
12664;BME280;6396;58.490;15.528;2023-06-14T04:43:37;101403.50;;;16.23;93.78
12664;BME280;6396;58.490;15.528;2023-06-14T04:46:04;101464.13;;;16.66;94.07
12664;BME280;6396;58.490;15.528;2023-06-14T04:48:36;100955.81;;;13.72;95.46
12664;BME280;6396;58.490;15.528;2023-06-14T04:51:06;101459.41;;;16.74;100.00
12664;BME280;6396;58.490;15.528;2023-06-14T04:53:33;101019.09;;;14.10;97.75
12664;BME280;6396;58.490;15.528;2023-06-14T04:56:00;101419.47;;;16.48;99.47
12664;BME280;6396;58.490;15.528;2023-06-14T04:58:28;101497.53;;;16.76;100.00
12664;BME280;6396;58.490;15.528;2023-06-14T05:00:55;101411.06;;;16.35;100.00
12664;BME280;6396;58.490;15.528;2023-06-14T05:03:24;101087.34;;;14.61;100.00
12664;BME280;6396;58.490;15.528;2023-06-14T05:05:52;101257.78;;;15.54;100.00
12664;BME280;6396;58.490;15.528;2023-06-14T05:08:20;101435.53;;;16.69;100.00
12664;BME280;6396;58.490;15.528;2023-06-14T05:10:49;101254.47;;;15.48;100.00
12664;BME280;6396;58.490;15.528;2023-06-14T05:13:15;101473.78;;;17.15;100.00
12664;BME280;6396;58.490;15.528;2023-06-14T05:15:42;101468.16;;;17.22;100.00
12664;BME280;6396;58.490;15.528;2023-06-14T05:18:09;101491.88;;;17.30;100.00
12664;BME280;6396;58.490;15.528;2023-06-14T05:20:36;101478.19;;;17.39;100.00
12664;BME280;6396;58.490;15.528;2023-06-14T05:23:03;101467.44;;;17.40;100.00
12664;BME280;6396;58.490;15.528;2023-06-14T05:25:31;101317.56;;;16.63;100.00
12664;BME280;6396;58.490;15.528;2023-06-14T05:27:58;101486.47;;;17.54;100.00
12664;BME280;6396;58.490;15.528;2023-06-14T05:30:25;101424.41;;;17.26;100.00
12664;BME280;6396;58.490;15.528;2023-06-14T05:32:54;101126.50;;;15.76;100.00
12664;BME280;6396;58.490;15.528;2023-06-14T05:35:24;101447.81;;;17.63;100.00
12664;BME280;6396;58.490;15.528;2023-06-14T05:37:52;101507.38;;;17.87;100.00
12664;BME280;6396;58.490;15.528;2023-06-14T05:40:19;101429.78;;;17.68;100.00
12664;BME280;6396;58.490;15.528;2023-06-14T05:42:47;101224.25;;;16.40;100.00
12664;BME280;6396;58.490;15.528;2023-06-14T05:45:14;101476.25;;;18.06;100.00
12664;BME280;6396;58.490;15.528;2023-06-14T05:47:41;101507.59;;;18.02;100.00
12664;BME280;6396;58.490;15.528;2023-06-14T05:50:09;101443.97;;;17.70;100.00
12664;BME280;6396;58.490;15.528;2023-06-14T05:52:36;101281.97;;;17.07;100.00
12664;BME280;6396;58.490;15.528;2023-06-14T05:55:04;101355.53;;;17.34;100.00
12664;BME280;6396;58.490;15.528;2023-06-14T05:57:31;101397.00;;;17.84;100.00
12664;BME280;6396;58.490;15.528;2023-06-14T05:59:59;101297.44;;;17.39;100.00
12664;BME280;6396;58.490;15.528;2023-06-14T06:02:26;101353.31;;;17.65;100.00
12664;BME280;6396;58.490;15.528;2023-06-14T06:04:53;101384.00;;;17.77;100.00
12664;BME280;6396;58.490;15.528;2023-06-14T06:07:20;101475.31;;;18.67;100.00
12664;BME280;6396;58.490;15.528;2023-06-14T06:09:47;101483.78;;;18.76;100.00
12664;BME280;6396;58.490;15.528;2023-06-14T06:12:14;101507.00;;;18.76;100.00
12664;BME280;6396;58.490;15.528;2023-06-14T06:14:41;101380.56;;;18.14;100.00
12664;BME280;6396;58.490;15.528;2023-06-14T06:17:09;101483.59;;;19.00;100.00
12664;BME280;6396;58.490;15.528;2023-06-14T06:19:36;101528.75;;;19.07;100.00
12664;BME280;6396;58.490;15.528;2023-06-14T06:22:03;101464.63;;;18.85;100.00
12664;BME280;6396;58.490;15.528;2023-06-14T06:24:31;101318.50;;;18.26;100.00
12664;BME280;6396;58.490;15.528;2023-06-14T06:26:58;101503.13;;;19.20;100.00
12664;BME280;6396;58.490;15.528;2023-06-14T06:29:25;101362.84;;;18.50;100.00
12664;BME280;6396;58.490;15.528;2023-06-14T06:31:52;101448.06;;;18.96;100.00
12664;BME280;6396;58.490;15.528;2023-06-14T06:34:20;101386.81;;;18.71;100.00
12664;BME280;6396;58.490;15.528;2023-06-14T06:36:47;101453.13;;;19.02;100.00
12664;BME280;6396;58.490;15.528;2023-06-14T06:39:14;101441.81;;;19.14;100.00
12664;BME280;6396;58.490;15.528;2023-06-14T06:41:40;101435.75;;;19.11;100.00
12664;BME280;6396;58.490;15.528;2023-06-14T06:44:07;101348.63;;;18.68;100.00
12664;BME280;6396;58.490;15.528;2023-06-14T06:46:35;101459.06;;;19.27;100.00
12664;BME280;6396;58.490;15.528;2023-06-14T06:49:05;101432.41;;;19.24;100.00
12664;BME280;6396;58.490;15.528;2023-06-14T06:51:34;101378.97;;;19.04;99.13
12664;BME280;6396;58.490;15.528;2023-06-14T06:54:01;101456.16;;;19.50;96.94
12664;BME280;6396;58.490;15.528;2023-06-14T06:56:28;101418.03;;;19.62;95.37
12664;BME280;6396;58.490;15.528;2023-06-14T06:58:56;101527.88;;;20.17;93.20
12664;BME280;6396;58.490;15.528;2023-06-14T07:01:23;101484.13;;;20.15;89.82
12664;BME280;6396;58.490;15.528;2023-06-14T07:03:51;101378.13;;;19.73;89.03
12664;BME280;6396;58.490;15.528;2023-06-14T07:06:18;101344.69;;;19.63;90.00
12664;BME280;6396;58.490;15.528;2023-06-14T07:08:47;101513.06;;;20.59;91.62
12664;BME280;6396;58.490;15.528;2023-06-14T07:11:14;101310.91;;;19.44;88.85
12664;BME280;6396;58.490;15.528;2023-06-14T07:13:41;101446.25;;;20.38;86.55
12664;BME280;6396;58.490;15.528;2023-06-14T07:16:08;101375.88;;;20.16;81.99
12664;BME280;6396;58.490;15.528;2023-06-14T07:18:35;101527.28;;;21.11;77.40
12664;BME280;6396;58.490;15.528;2023-06-14T07:21:02;101106.13;;;19.00;74.42
12664;BME280;6396;58.490;15.528;2023-06-14T07:23:29;101424.47;;;20.92;70.94
12664;BME280;6396;58.490;15.528;2023-06-14T07:25:58;101503.81;;;21.46;69.40
12664;BME280;6396;58.490;15.528;2023-06-14T07:28:24;101495.66;;;21.47;64.03
12664;BME280;6396;58.490;15.528;2023-06-14T07:30:51;101412.56;;;20.96;62.04
12664;BME280;6396;58.490;15.528;2023-06-14T07:33:18;101328.31;;;20.52;62.95
12664;BME280;6396;58.490;15.528;2023-06-14T07:35:45;101497.78;;;21.72;61.14
12664;BME280;6396;58.490;15.528;2023-06-14T07:38:13;101401.81;;;21.13;60.98
12664;BME280;6396;58.490;15.528;2023-06-14T07:40:40;101500.28;;;22.06;61.09
12664;BME280;6396;58.490;15.528;2023-06-14T07:43:08;101520.44;;;22.29;60.58
12664;BME280;6396;58.490;15.528;2023-06-14T07:45:35;101479.88;;;22.32;59.75
12664;BME280;6396;58.490;15.528;2023-06-14T07:48:01;101503.53;;;22.70;62.94
12664;BME280;6396;58.490;15.528;2023-06-14T07:50:28;101482.44;;;22.91;60.62
12664;BME280;6396;58.490;15.528;2023-06-14T07:52:56;101433.47;;;22.84;59.02
12664;BME280;6396;58.490;15.528;2023-06-14T07:55:23;101361.03;;;22.80;55.02
12664;BME280;6396;58.490;15.528;2023-06-14T07:57:50;101421.78;;;23.92;53.62
12664;BME280;6396;58.490;15.528;2023-06-14T08:00:20;101493.97;;;25.28;53.75
12664;BME280;6396;58.490;15.528;2023-06-14T08:02:46;101499.25;;;26.25;49.90
12664;BME280;6396;58.490;15.528;2023-06-14T08:05:13;101489.00;;;27.19;47.69
12664;BME280;6396;58.490;15.528;2023-06-14T08:07:40;101443.81;;;27.62;44.36
12664;BME280;6396;58.490;15.528;2023-06-14T08:10:08;101463.47;;;28.38;40.92
12664;BME280;6396;58.490;15.528;2023-06-14T08:12:34;101410.03;;;28.79;39.43
12664;BME280;6396;58.490;15.528;2023-06-14T08:15:01;101392.56;;;29.11;38.12
12664;BME280;6396;58.490;15.528;2023-06-14T08:17:30;101402.28;;;29.82;37.31
12664;BME280;6396;58.490;15.528;2023-06-14T08:19:56;101440.38;;;30.39;35.76
12664;BME280;6396;58.490;15.528;2023-06-14T08:22:23;101476.03;;;31.11;35.54
12664;BME280;6396;58.490;15.528;2023-06-14T08:24:51;101347.72;;;30.57;34.54
12664;BME280;6396;58.490;15.528;2023-06-14T08:27:19;101378.88;;;31.18;33.93
12664;BME280;6396;58.490;15.528;2023-06-14T08:29:46;101347.38;;;31.24;33.09
12664;BME280;6396;58.490;15.528;2023-06-14T08:32:13;101474.09;;;32.46;31.40
12664;BME280;6396;58.490;15.528;2023-06-14T08:34:41;101382.28;;;32.00;31.28
12664;BME280;6396;58.490;15.528;2023-06-14T08:37:08;101299.31;;;31.66;31.10
12664;BME280;6396;58.490;15.528;2023-06-14T08:39:34;100859.25;;;29.56;30.32
12664;BME280;6396;58.490;15.528;2023-06-14T08:42:04;101280.69;;;31.87;28.49
12664;BME280;6396;58.490;15.528;2023-06-14T08:44:33;101284.09;;;32.07;27.78
12664;BME280;6396;58.490;15.528;2023-06-14T08:47:00;101285.06;;;31.98;26.48
12664;BME280;6396;58.490;15.528;2023-06-14T08:49:29;100861.72;;;29.32;26.45
12664;BME280;6396;58.490;15.528;2023-06-14T08:52:00;101380.25;;;31.85;24.42
12664;BME280;6396;58.490;15.528;2023-06-14T08:54:28;101241.81;;;31.15;25.07
12664;BME280;6396;58.490;15.528;2023-06-14T08:56:55;101277.31;;;31.32;25.59
12664;BME280;6396;58.490;15.528;2023-06-14T08:59:24;101535.22;;;32.98;25.26
12664;BME280;6396;58.490;15.528;2023-06-14T09:01:52;101478.28;;;33.09;25.29
12664;BME280;6396;58.490;15.528;2023-06-14T09:04:19;101306.44;;;32.02;24.45
12664;BME280;6396;58.490;15.528;2023-06-14T09:06:47;101280.56;;;31.89;24.40
12664;BME280;6396;58.490;15.528;2023-06-14T09:09:20;101142.63;;;31.32;24.05
12664;BME280;6396;58.490;15.528;2023-06-14T09:11:49;101517.44;;;33.35;25.36
12664;BME280;6396;58.490;15.528;2023-06-14T09:14:17;101426.94;;;32.77;23.79
12664;BME280;6396;58.490;15.528;2023-06-14T09:16:44;101443.41;;;32.60;23.92
12664;BME280;6396;58.490;15.528;2023-06-14T09:19:13;101474.00;;;32.55;24.54
12664;BME280;6396;58.490;15.528;2023-06-14T09:21:40;101412.72;;;32.05;24.51
12664;BME280;6396;58.490;15.528;2023-06-14T09:24:13;101443.97;;;31.85;25.63
12664;BME280;6396;58.490;15.528;2023-06-14T09:26:42;101451.72;;;31.90;25.94
12664;BME280;6396;58.490;15.528;2023-06-14T09:29:09;101469.34;;;32.48;27.21
12664;BME280;6396;58.490;15.528;2023-06-14T09:31:36;101515.47;;;32.68;27.17
12664;BME280;6396;58.490;15.528;2023-06-14T09:34:03;101467.38;;;32.92;27.04
12664;BME280;6396;58.490;15.528;2023-06-14T09:36:31;101358.97;;;32.39;25.53
12664;BME280;6396;58.490;15.528;2023-06-14T09:38:59;101379.91;;;32.48;25.34
12664;BME280;6396;58.490;15.528;2023-06-14T09:41:32;101250.88;;;32.02;25.62
12664;BME280;6396;58.490;15.528;2023-06-14T09:44:01;101093.22;;;30.92;26.18
12664;BME280;6396;58.490;15.528;2023-06-14T09:46:29;101458.19;;;33.42;25.84
12664;BME280;6396;58.490;15.528;2023-06-14T09:48:57;101241.22;;;32.41;24.03
12664;BME280;6396;58.490;15.528;2023-06-14T09:51:25;101312.44;;;32.65;24.49
12664;BME280;6396;58.490;15.528;2023-06-14T09:53:52;101162.59;;;31.50;23.72
12664;BME280;6396;58.490;15.528;2023-06-14T09:56:25;101464.97;;;33.72;23.06
12664;BME280;6396;58.490;15.528;2023-06-14T09:58:55;101248.44;;;32.58;23.20
12664;BME280;6396;58.490;15.528;2023-06-14T10:01:24;101508.88;;;33.80;22.61
12664;BME280;6396;58.490;15.528;2023-06-14T10:03:55;101047.00;;;30.90;24.39
12664;BME280;6396;58.490;15.528;2023-06-14T10:06:28;101030.44;;;30.48;24.38
12664;BME280;6396;58.490;15.528;2023-06-14T10:08:57;101302.03;;;31.66;24.78
12664;BME280;6396;58.490;15.528;2023-06-14T10:11:25;101179.06;;;30.80;24.94
12664;BME280;6396;58.490;15.528;2023-06-14T10:13:53;101343.41;;;32.14;24.60
12664;BME280;6396;58.490;15.528;2023-06-14T10:16:26;101182.56;;;31.07;22.82
12664;BME280;6396;58.490;15.528;2023-06-14T10:19:01;101070.63;;;30.64;23.22
12664;BME280;6396;58.490;15.528;2023-06-14T10:21:36;101169.31;;;30.77;23.29
12664;BME280;6396;58.490;15.528;2023-06-14T10:24:07;101443.84;;;32.47;22.75
12664;BME280;6396;58.490;15.528;2023-06-14T10:26:50;101444.59;;;32.14;23.66
12664;BME280;6396;58.490;15.528;2023-06-14T10:29:17;101417.75;;;31.92;23.03
12664;BME280;6396;58.490;15.528;2023-06-14T10:31:46;101421.41;;;31.65;23.05
12664;BME280;6396;58.490;15.528;2023-06-14T10:34:21;101330.66;;;31.27;23.73
12664;BME280;6396;58.490;15.528;2023-06-14T10:37:01;101165.28;;;30.36;22.39
12664;BME280;6396;58.490;15.528;2023-06-14T10:39:29;101380.19;;;31.94;24.48
12664;BME280;6396;58.490;15.528;2023-06-14T10:41:57;101435.16;;;32.52;24.57
12664;BME280;6396;58.490;15.528;2023-06-14T10:44:39;101437.06;;;32.59;23.80
12664;BME280;6396;58.490;15.528;2023-06-14T10:47:10;101409.69;;;32.08;24.10
12664;BME280;6396;58.490;15.528;2023-06-14T10:49:42;101308.22;;;31.33;26.35
12664;BME280;6396;58.490;15.528;2023-06-14T10:52:14;101436.53;;;32.13;26.20
12664;BME280;6396;58.490;15.528;2023-06-14T10:54:59;101434.38;;;31.99;26.99
12664;BME280;6396;58.490;15.528;2023-06-14T10:57:27;101391.38;;;31.21;26.65
12664;BME280;6396;58.490;15.528;2023-06-14T10:59:54;101415.16;;;31.28;26.92
12664;BME280;6396;58.490;15.528;2023-06-14T11:02:46;101452.25;;;31.31;28.07
12664;BME280;6396;58.490;15.528;2023-06-14T11:05:23;101381.25;;;30.77;27.08
12664;BME280;6396;58.490;15.528;2023-06-14T11:07:58;100675.84;;;26.75;27.26
12664;BME280;6396;58.490;15.528;2023-06-14T11:10:35;101339.09;;;30.15;28.42
12664;BME280;6396;58.490;15.528;2023-06-14T11:13:03;100834.91;;;27.33;27.81
12664;BME280;6396;58.490;15.528;2023-06-14T11:15:30;101414.72;;;31.06;26.42
12664;BME280;6396;58.490;15.528;2023-06-14T11:18:00;101416.53;;;31.15;26.06
12664;BME280;6396;58.490;15.528;2023-06-14T11:20:30;101411.69;;;31.36;25.65
12664;BME280;6396;58.490;15.528;2023-06-14T11:22:57;101229.69;;;30.37;26.32
12664;BME280;6396;58.490;15.528;2023-06-14T11:25:24;101199.56;;;30.12;25.30
12664;BME280;6396;58.490;15.528;2023-06-14T11:27:52;101311.22;;;30.67;24.89
12664;BME280;6396;58.490;15.528;2023-06-14T11:30:19;101230.50;;;29.84;24.42
12664;BME280;6396;58.490;15.528;2023-06-14T11:32:46;101191.41;;;29.56;25.01
12664;BME280;6396;58.490;15.528;2023-06-14T11:35:15;101334.13;;;29.92;24.84
12664;BME280;6396;58.490;15.528;2023-06-14T11:37:43;100869.47;;;27.60;26.59
12664;BME280;6396;58.490;15.528;2023-06-14T11:40:11;101173.63;;;29.61;24.58
12664;BME280;6396;58.490;15.528;2023-06-14T11:42:40;101398.22;;;31.25;24.44
12664;BME280;6396;58.490;15.528;2023-06-14T11:45:08;101422.41;;;31.20;24.50
12664;BME280;6396;58.490;15.528;2023-06-14T11:47:36;101382.78;;;31.16;24.26
12664;BME280;6396;58.490;15.528;2023-06-14T11:50:05;101344.78;;;31.05;24.29
12664;BME280;6396;58.490;15.528;2023-06-14T11:52:34;101308.72;;;30.74;25.81
12664;BME280;6396;58.490;15.528;2023-06-14T11:55:01;100950.69;;;28.85;24.78
12664;BME280;6396;58.490;15.528;2023-06-14T11:57:30;101005.13;;;29.22;25.35
12664;BME280;6396;58.490;15.528;2023-06-14T11:59:56;101401.50;;;31.28;25.35
12664;BME280;6396;58.490;15.528;2023-06-14T12:02:23;101362.97;;;30.87;25.60
12664;BME280;6396;58.490;15.528;2023-06-14T12:04:53;101176.22;;;29.63;25.71
12664;BME280;6396;58.490;15.528;2023-06-14T12:07:22;101152.38;;;29.28;25.21
12664;BME280;6396;58.490;15.528;2023-06-14T12:10:13;101382.84;;;30.33;23.84
12664;BME280;6396;58.490;15.528;2023-06-14T12:12:41;101336.84;;;30.01;25.69
12664;BME280;6396;58.490;15.528;2023-06-14T12:15:09;101398.66;;;30.29;26.04
12664;BME280;6396;58.490;15.528;2023-06-14T12:17:37;101344.72;;;30.04;25.87
12664;BME280;6396;58.490;15.528;2023-06-14T12:20:08;101020.00;;;28.05;26.74
12664;BME280;6396;58.490;15.528;2023-06-14T12:22:39;101424.78;;;30.03;26.31
12664;BME280;6396;58.490;15.528;2023-06-14T12:25:26;101276.88;;;29.26;25.78
12664;BME280;6396;58.490;15.528;2023-06-14T12:27:53;101386.63;;;29.75;26.49
12664;BME280;6396;58.490;15.528;2023-06-14T12:30:20;101390.09;;;29.77;27.42
12664;BME280;6396;58.490;15.528;2023-06-14T12:32:47;101302.06;;;29.38;26.95
12664;BME280;6396;58.490;15.528;2023-06-14T12:35:16;101338.16;;;29.59;27.31
12664;BME280;6396;58.490;15.528;2023-06-14T12:37:43;101112.72;;;28.49;27.00
12664;BME280;6396;58.490;15.528;2023-06-14T12:40:11;101250.63;;;29.25;26.70
12664;BME280;6396;58.490;15.528;2023-06-14T12:42:40;101201.34;;;28.81;27.21
12664;BME280;6396;58.490;15.528;2023-06-14T12:45:07;101362.28;;;29.73;27.78
12664;BME280;6396;58.490;15.528;2023-06-14T12:47:34;101233.69;;;28.65;28.24
12664;BME280;6396;58.490;15.528;2023-06-14T12:50:01;101308.50;;;29.27;28.42
12664;BME280;6396;58.490;15.528;2023-06-14T12:52:28;101354.38;;;29.80;28.77
12664;BME280;6396;58.490;15.528;2023-06-14T12:54:55;101357.41;;;29.86;28.62